Terminal Aerodrome Forecast
Issued by NWS Detroit/Pontiac, MI

Home | Current Version | Previous Version | Text Only | Print | Product List | Glossary On
Versions: 1 2 3 4 5 6 7 8 9 10 11 12 13 14 15 16 17 18
632
FTUS43 KDTX 260520
TAFFNT
TAF
KFNT 260520Z 2606/2706 27012G18KT P6SM SCT025 OVC040
     FM261000 24011KT P6SM SCT150 BKN250
     FM261600 22018G29KT P6SM SCT050 BKN070
     FM270000 21014KT P6SM SCT070=

USA.gov is the U.S. government's official web portal to all federal, state and local government web resources and services.